createdAt,value
2023-03-06T00:01:29.136Z,53.48
2023-03-06T00:04:00.610Z,52.93
2023-03-06T00:06:31.935Z,54.18
2023-03-06T00:09:03.418Z,50.60
2023-03-06T00:11:34.829Z,58.40
2023-03-06T00:14:06.432Z,57.27
2023-03-06T00:16:38.028Z,57.67
2023-03-06T00:19:09.592Z,54.38
2023-03-06T00:21:42.876Z,57.78
2023-03-06T00:24:14.614Z,51.83
2023-03-06T00:26:45.958Z,58.85
2023-03-06T00:29:17.464Z,50.73
2023-03-06T00:31:48.894Z,51.95
2023-03-06T00:34:20.304Z,55.92
2023-03-06T00:36:51.633Z,62.70
2023-03-06T00:39:23.673Z,46.20
2023-03-06T00:41:55.521Z,57.48
2023-03-06T00:44:26.955Z,69.72
2023-03-06T00:46:58.286Z,60.92
2023-03-06T00:49:29.717Z,58.40
2023-03-06T00:52:01.065Z,59.58
2023-03-06T00:54:32.497Z,58.02
2023-03-06T00:57:03.946Z,54.48
2023-03-06T00:59:35.694Z,65.60
2023-03-06T01:02:07.257Z,58.33
2023-03-06T01:04:38.971Z,61.68
2023-03-06T01:07:10.436Z,60.50
2023-03-06T01:09:41.868Z,56.08
2023-03-06T01:12:13.548Z,60.00
2023-03-06T01:14:45.008Z,66.55
2023-03-06T01:17:16.458Z,55.48
2023-03-06T01:19:47.895Z,59.48
2023-03-06T01:22:19.290Z,58.33
2023-03-06T01:24:50.737Z,57.13
2023-03-06T01:27:22.402Z,54.10
2023-03-06T01:29:53.833Z,64.97
2023-03-06T01:32:25.239Z,64.95
2023-03-06T01:34:57.158Z,60.40
2023-03-06T01:37:28.838Z,63.30
2023-03-06T01:40:00.356Z,57.33
2023-03-06T01:42:32.220Z,67.58
2023-03-06T01:45:07.719Z,60.30
2023-03-06T01:47:39.172Z,57.48
2023-03-06T01:50:12.885Z,66.07
2023-03-06T01:55:28.846Z,62.80
2023-03-06T01:58:03.345Z,60.50
2023-03-06T02:00:34.756Z,62.03
2023-03-06T02:03:09.853Z,55.28
2023-03-06T02:05:42.795Z,54.98
2023-03-06T02:08:16.579Z,53.75
2023-03-06T02:10:58.829Z,52.40
2023-03-06T02:13:30.483Z,50.52
2023-03-06T02:16:02.155Z,68.28
2023-03-06T02:18:34.098Z,66.02
2023-03-06T02:21:08.322Z,56.98
2023-03-06T02:23:43.734Z,71.15
2023-03-06T02:26:40.652Z,58.15
2023-03-06T02:29:12.202Z,45.28
2023-03-06T02:31:43.907Z,54.67
2023-03-06T02:35:01.831Z,53.50
2023-03-06T02:37:33.415Z,64.80
2023-03-06T02:40:12.166Z,62.20
2023-03-06T02:42:49.110Z,52.53
2023-03-06T02:45:23.508Z,53.58
2023-03-06T02:47:54.986Z,63.92
2023-03-06T02:50:26.319Z,45.92
2023-03-06T02:52:57.952Z,56.98
2023-03-06T02:55:29.328Z,68.47
2023-03-06T02:58:01.193Z,55.50
2023-03-06T03:00:33.316Z,53.20
2023-03-06T03:03:06.211Z,47.60
2023-03-06T03:05:37.577Z,57.27
2023-03-06T03:08:09.102Z,61.88
2023-03-06T03:10:40.563Z,55.12
2023-03-06T03:13:11.971Z,67.58
2023-03-06T03:15:43.416Z,67.03
2023-03-06T03:18:15.073Z,64.37
2023-03-06T03:20:46.467Z,59.60
2023-03-06T03:23:17.909Z,58.87
2023-03-06T03:25:49.365Z,59.23
2023-03-06T03:28:21.488Z,64.25
2023-03-06T03:30:52.904Z,56.20
2023-03-06T03:33:24.426Z,53.15
2023-03-06T03:35:59.368Z,51.33
2023-03-06T03:38:32.083Z,58.10
2023-03-06T03:41:04.560Z,58.05
2023-03-06T03:43:36.118Z,67.17
2023-03-06T03:46:07.807Z,52.80
2023-03-06T03:48:39.224Z,57.33
2023-03-06T03:51:12.966Z,55.20
2023-03-06T03:53:45.061Z,55.92
2023-03-06T03:56:16.429Z,51.92
2023-03-06T03:58:47.842Z,49.90
2023-03-06T04:01:19.302Z,53.80
2023-03-06T04:03:51.241Z,57.33
2023-03-06T04:06:22.651Z,63.58
2023-03-06T04:08:54.041Z,62.17
2023-03-06T04:11:25.861Z,56.70
2023-03-06T04:13:57.229Z,50.10
2023-03-06T04:16:28.744Z,60.85
2023-03-06T04:19:00.097Z,61.20
2023-03-06T04:21:31.487Z,65.85
2023-03-06T04:24:02.879Z,50.98
2023-03-06T04:26:34.393Z,67.87
2023-03-06T04:29:05.778Z,51.92
2023-03-06T04:31:37.271Z,57.70
2023-03-06T04:34:08.840Z,56.30
2023-03-06T04:36:42.657Z,63.98
2023-03-06T04:39:15.876Z,65.15
2023-03-06T04:41:48.334Z,54.27
2023-03-06T04:44:19.688Z,51.85
2023-03-06T04:46:51.271Z,64.97
2023-03-06T04:49:22.812Z,58.17
2023-03-06T04:51:54.254Z,59.15
2023-03-06T04:54:25.631Z,66.60
2023-03-06T04:56:57.772Z,65.10
2023-03-06T04:59:29.200Z,61.45
2023-03-06T05:02:00.665Z,75.60
2023-03-06T05:04:32.145Z,59.25
2023-03-06T05:07:03.841Z,50.85
2023-03-06T05:09:37.696Z,60.58
2023-03-06T05:12:10.157Z,58.98
2023-03-06T05:14:41.897Z,57.33
2023-03-06T05:17:14.365Z,67.27
2023-03-06T05:19:45.712Z,57.60
2023-03-06T05:22:17.145Z,63.52
2023-03-06T05:24:48.552Z,61.23
2023-03-06T05:27:19.992Z,74.85
2023-03-06T05:29:51.354Z,63.63
2023-03-06T05:32:23.701Z,61.92
2023-03-06T05:34:55.329Z,66.12
2023-03-06T05:37:27.281Z,68.70
2023-03-06T05:39:58.758Z,56.90
2023-03-06T05:42:32.509Z,65.87
2023-03-06T05:45:05.129Z,62.35
2023-03-06T05:47:36.797Z,66.47
2023-03-06T05:50:10.545Z,56.90
2023-03-06T05:52:42.092Z,59.42
2023-03-06T05:55:15.497Z,55.43
2023-03-06T05:57:46.933Z,61.90
2023-03-06T06:00:20.121Z,62.13
2023-03-06T06:02:51.654Z,71.65
2023-03-06T06:05:23.092Z,61.77
2023-03-06T06:07:54.483Z,58.48
2023-03-06T06:10:25.841Z,59.48
2023-03-06T06:12:57.273Z,65.45
2023-03-06T06:15:28.935Z,72.08
2023-03-06T06:18:00.736Z,64.82
2023-03-06T06:20:32.300Z,64.05
2023-03-06T06:23:03.733Z,69.60
2023-03-06T06:25:35.264Z,60.70
2023-03-06T06:28:07.448Z,66.82
2023-03-06T06:30:39.502Z,65.80
2023-03-06T06:33:10.912Z,59.25
2023-03-06T06:35:42.359Z,71.37
2023-03-06T06:38:13.813Z,62.53
2023-03-06T06:40:54.012Z,69.53
2023-03-06T06:43:18.176Z,63.48
2023-03-06T06:45:50.436Z,62.00
2023-03-06T06:48:21.991Z,61.13
2023-03-06T06:50:58.174Z,59.30
2023-03-06T06:53:29.550Z,59.13
2023-03-06T06:56:01.459Z,56.35
2023-03-06T06:58:32.824Z,57.50
2023-03-06T07:01:08.671Z,57.00
2023-03-06T07:03:40.549Z,64.85
2023-03-06T07:06:11.941Z,56.88
2023-03-06T07:08:43.313Z,59.42
2023-03-06T07:11:18.050Z,55.28
2023-03-06T07:13:49.762Z,66.22
2023-03-06T07:16:21.274Z,70.90
2023-03-06T07:18:52.963Z,67.47
2023-03-06T07:21:24.085Z,64.60
2023-03-06T07:23:57.308Z,57.90
2023-03-06T07:26:32.140Z,59.33
2023-03-06T07:29:03.880Z,61.08
2023-03-06T07:31:35.432Z,62.80
2023-03-06T07:34:06.817Z,56.75
2023-03-06T07:36:39.906Z,66.40
2023-03-06T07:39:11.679Z,60.30
2023-03-06T07:41:43.093Z,54.03
2023-03-06T07:44:14.564Z,55.55
2023-03-06T07:46:46.244Z,57.33
2023-03-06T07:49:18.118Z,61.68
2023-03-06T07:51:49.574Z,66.65
2023-03-06T07:54:21.002Z,55.17
2023-03-06T07:56:53.746Z,69.90
2023-03-06T07:59:25.814Z,71.40
2023-03-06T08:01:57.482Z,65.72
2023-03-06T08:04:30.093Z,66.30
2023-03-06T08:07:01.792Z,61.55
2023-03-06T08:09:35.522Z,56.45
2023-03-06T08:12:07.538Z,54.13
2023-03-06T08:14:40.168Z,54.60
2023-03-06T08:17:11.657Z,51.23
2023-03-06T08:19:43.143Z,58.87
2023-03-06T08:22:14.589Z,59.35
2023-03-06T08:24:46.109Z,57.33
2023-03-06T08:27:18.112Z,64.95
2023-03-06T08:29:49.608Z,62.27
2023-03-06T08:32:21.051Z,68.07
2023-03-06T08:34:52.593Z,61.08
2023-03-06T08:37:23.996Z,68.10
2023-03-06T08:39:55.447Z,57.65
2023-03-06T08:42:26.856Z,63.95
2023-03-06T08:44:58.331Z,71.87
2023-03-06T08:47:29.714Z,72.53
2023-03-06T08:50:01.438Z,69.00
2023-03-06T08:52:32.796Z,59.73
2023-03-06T08:55:05.491Z,64.42
2023-03-06T08:57:37.019Z,68.30
2023-03-06T09:00:11.701Z,58.17
2023-03-06T09:02:43.253Z,74.35
2023-03-06T09:05:14.963Z,65.17
2023-03-06T09:07:46.384Z,65.12
2023-03-06T09:10:18.652Z,65.95
2023-03-06T09:12:53.220Z,75.05
2023-03-06T09:15:30.611Z,77.90
2023-03-06T09:18:02.052Z,76.22
2023-03-06T09:20:33.592Z,63.65
2023-03-06T09:23:04.966Z,65.32
2023-03-06T09:25:36.498Z,70.00
2023-03-06T09:28:11.751Z,60.52
2023-03-06T09:30:42.668Z,67.87
2023-03-06T09:33:14.496Z,62.93
2023-03-06T09:35:50.875Z,61.55
2023-03-06T09:38:24.936Z,74.17
2023-03-06T09:41:03.212Z,65.97
2023-03-06T09:43:38.667Z,70.25
2023-03-06T09:46:19.208Z,75.85
2023-03-06T09:49:07.903Z,59.77
2023-03-06T09:51:46.490Z,58.30
2023-03-06T09:54:17.951Z,64.22
2023-03-06T09:56:51.424Z,62.65
2023-03-06T09:59:25.595Z,54.67
2023-03-06T10:02:02.767Z,57.90
2023-03-06T10:04:43.252Z,55.05
2023-03-06T10:07:18.371Z,55.35
2023-03-06T10:09:53.850Z,58.40
2023-03-06T10:12:28.537Z,59.23
2023-03-06T10:15:08.907Z,55.03
2023-03-06T10:17:44.666Z,43.15
2023-03-06T10:20:26.422Z,51.95
2023-03-06T10:23:16.194Z,50.10
2023-03-06T10:28:37.881Z,56.00
2023-03-06T10:31:12.622Z,50.63
2023-03-06T10:33:51.537Z,57.08
2023-03-06T10:36:26.883Z,55.00
2023-03-06T10:39:00.308Z,55.20
2023-03-06T10:41:34.995Z,60.28
2023-03-06T10:44:26.992Z,65.32
2023-03-06T10:47:03.074Z,83.42
2023-03-06T10:49:37.870Z,54.77
2023-03-06T10:52:21.921Z,47.30
2023-03-06T10:54:53.469Z,52.65
2023-03-06T10:57:30.119Z,43.95
2023-03-06T11:00:05.957Z,52.10
2023-03-06T11:02:40.916Z,40.73
2023-03-06T11:05:21.556Z,48.00
2023-03-06T11:07:59.086Z,38.50
2023-03-06T11:10:34.448Z,41.53
2023-03-06T11:13:10.292Z,41.55
2023-03-06T11:15:43.351Z,39.73
2023-03-06T11:18:32.706Z,52.55
2023-03-06T11:21:08.993Z,36.85
2023-03-06T11:23:43.936Z,39.58
2023-03-06T11:29:35.773Z,34.38
2023-03-06T11:32:12.504Z,32.10
2023-03-06T11:34:50.416Z,30.37
2023-03-06T11:37:32.965Z,30.30
2023-03-06T11:40:09.686Z,31.82
2023-03-06T11:42:44.006Z,31.75
2023-03-06T11:45:33.675Z,32.78
2023-03-06T11:48:12.905Z,30.15
2023-03-06T11:50:45.664Z,28.65
2023-03-06T11:53:19.548Z,39.13
2023-03-06T11:55:57.284Z,32.42
2023-03-06T11:58:47.705Z,28.83
2023-03-06T12:01:25.653Z,33.38
2023-03-06T12:07:13.195Z,25.45
2023-03-06T12:09:48.925Z,35.75
2023-03-06T12:15:40.095Z,29.15
2023-03-06T12:18:20.346Z,31.85
2023-03-06T12:20:58.350Z,26.40
2023-03-06T12:23:51.818Z,28.75
2023-03-06T12:26:37.840Z,27.35
2023-03-06T12:29:21.913Z,31.20
2023-03-06T12:32:00.998Z,28.23
2023-03-06T12:34:47.062Z,28.00
2023-03-06T12:37:26.940Z,27.87
2023-03-06T12:40:07.642Z,27.82
2023-03-06T12:42:49.591Z,36.48
2023-03-06T12:45:30.553Z,30.00
2023-03-06T12:48:02.597Z,25.35
2023-03-06T12:50:38.103Z,27.87
2023-03-06T12:53:14.722Z,29.12
2023-03-06T12:55:48.350Z,32.88
2023-03-06T12:58:50.905Z,27.55
2023-03-06T13:01:53.924Z,25.60
2023-03-06T13:04:38.898Z,25.85
2023-03-06T13:07:21.862Z,28.77
2023-03-06T13:10:09.623Z,29.05
2023-03-06T13:12:56.053Z,23.40
2023-03-06T13:15:38.287Z,27.82
2023-03-06T13:18:50.877Z,27.30
2023-03-06T13:22:00.638Z,21.90
2023-03-06T13:24:34.616Z,32.83
2023-03-06T13:27:43.730Z,22.45
2023-03-06T13:30:28.742Z,25.32
2023-03-06T13:33:07.740Z,29.77
2023-03-06T13:35:58.968Z,25.57
2023-03-06T13:39:02.894Z,22.85
2023-03-06T13:41:47.274Z,30.40
2023-03-06T13:48:05.698Z,25.92
2023-03-06T13:50:33.925Z,20.50
2023-03-06T13:53:15.006Z,19.30
2023-03-06T13:58:28.503Z,28.67
2023-03-06T14:01:25.969Z,25.57
2023-03-06T14:04:19.952Z,23.15
2023-03-06T14:06:54.401Z,19.07
2023-03-06T14:09:32.441Z,23.07
2023-03-06T14:12:07.583Z,21.35
2023-03-06T14:14:44.224Z,23.60
2023-03-06T14:17:25.060Z,24.30
2023-03-06T14:19:59.168Z,21.23
2023-03-06T14:22:31.264Z,24.60
2023-03-06T14:25:06.000Z,21.60
2023-03-06T14:27:45.247Z,23.25
2023-03-06T14:30:20.908Z,21.33
2023-03-06T14:32:55.740Z,21.05
2023-03-06T14:35:30.569Z,23.35
2023-03-06T14:38:07.495Z,21.65
2023-03-06T14:40:43.696Z,23.18
2023-03-06T14:43:23.948Z,19.95
2023-03-06T14:45:58.068Z,19.23
2023-03-06T14:48:39.875Z,22.27
2023-03-06T14:51:17.612Z,26.07
2023-03-06T14:53:51.266Z,19.75
2023-03-06T14:56:25.057Z,20.57
2023-03-06T14:59:00.129Z,21.35
2023-03-06T15:01:35.342Z,26.17
2023-03-06T15:04:10.838Z,23.07
2023-03-06T15:06:44.867Z,23.83
2023-03-06T15:09:21.109Z,22.93
2023-03-06T15:12:00.602Z,26.48
2023-03-06T15:14:37.615Z,18.75
2023-03-06T15:17:24.326Z,21.37
2023-03-06T15:19:57.362Z,23.32
2023-03-06T15:22:32.225Z,22.77
2023-03-06T15:25:21.004Z,21.95
2023-03-06T15:27:54.313Z,23.18
2023-03-06T15:30:31.176Z,23.22
2023-03-06T15:33:22.510Z,27.20
2023-03-06T15:35:57.295Z,23.05
2023-03-06T15:38:33.510Z,20.97
2023-03-06T15:41:07.079Z,17.60
2023-03-06T15:43:40.826Z,17.37
2023-03-06T15:46:13.066Z,21.30
2023-03-06T15:48:54.599Z,20.88
2023-03-06T15:51:26.302Z,21.52
2023-03-06T15:54:09.852Z,22.37
2023-03-06T15:56:33.035Z,21.02
2023-03-06T15:59:04.907Z,41.42
2023-03-06T16:01:37.494Z,20.57
2023-03-06T16:04:09.188Z,17.07
2023-03-06T16:06:40.677Z,18.37
2023-03-06T16:09:12.994Z,20.55
2023-03-06T16:11:45.424Z,17.20
2023-03-06T16:14:21.321Z,15.55
2023-03-06T16:16:54.484Z,14.47
2023-03-06T16:19:27.951Z,13.75
2023-03-06T16:21:59.783Z,14.63
2023-03-06T16:24:31.185Z,18.20
2023-03-06T16:27:03.551Z,19.87
2023-03-06T16:29:35.120Z,17.12
2023-03-06T16:32:07.447Z,17.17
2023-03-06T16:34:39.752Z,13.32
2023-03-06T16:37:13.968Z,14.90
2023-03-06T16:39:45.987Z,16.90
2023-03-06T16:42:19.105Z,15.78
2023-03-06T16:44:51.153Z,13.90
2023-03-06T16:47:27.330Z,13.28
2023-03-06T16:50:02.005Z,12.93
2023-03-06T16:52:33.531Z,13.90
2023-03-06T16:55:05.091Z,16.27
2023-03-06T16:57:36.490Z,23.75
2023-03-06T17:00:11.273Z,17.55
2023-03-06T17:02:43.170Z,17.42
2023-03-06T17:05:14.678Z,22.48
2023-03-06T17:07:46.286Z,17.12
2023-03-06T17:10:19.676Z,14.38
2023-03-06T17:12:51.117Z,15.30
2023-03-06T17:15:23.166Z,16.10
2023-03-06T17:17:54.750Z,14.47
2023-03-06T17:20:26.364Z,14.95
2023-03-06T17:22:57.789Z,14.33
2023-03-06T17:25:29.185Z,13.60
2023-03-06T17:28:00.495Z,11.70
2023-03-06T17:30:32.017Z,13.93
2023-03-06T17:33:03.509Z,15.90
2023-03-06T17:35:37.272Z,13.50
2023-03-06T17:38:08.850Z,11.80
2023-03-06T17:40:40.242Z,20.05
2023-03-06T17:43:11.622Z,19.15
2023-03-06T17:45:43.052Z,15.72
2023-03-06T17:48:14.404Z,14.45
2023-03-06T17:50:47.286Z,13.13
2023-03-06T17:53:18.625Z,12.03
2023-03-06T17:55:50.483Z,14.75
2023-03-06T17:58:22.147Z,14.47
2023-03-06T18:00:53.702Z,13.40
2023-03-06T18:03:25.102Z,13.75
2023-03-06T18:06:03.939Z,18.95
2023-03-06T18:08:35.308Z,20.82
2023-03-06T18:11:09.550Z,15.83
2023-03-06T18:13:42.810Z,22.85
2023-03-06T18:16:16.532Z,16.32
2023-03-06T18:18:48.088Z,16.30
2023-03-06T18:21:19.417Z,17.57
2023-03-06T18:23:51.240Z,18.07
2023-03-06T18:26:23.911Z,22.27
2023-03-06T18:28:56.753Z,18.35
2023-03-06T18:31:31.755Z,20.68
2023-03-06T18:34:04.506Z,22.52
2023-03-06T18:36:36.881Z,24.20
2023-03-06T18:39:10.190Z,20.08
2023-03-06T18:41:41.880Z,20.55
2023-03-06T18:44:16.295Z,18.50
2023-03-06T18:46:47.644Z,29.27
2023-03-06T18:49:19.056Z,25.12
2023-03-06T18:51:52.110Z,26.37
2023-03-06T18:54:24.351Z,28.45
2023-03-06T18:56:56.141Z,26.65
2023-03-06T18:59:28.597Z,21.17
2023-03-06T19:01:59.965Z,21.15
2023-03-06T19:04:31.812Z,20.72
2023-03-06T19:07:03.433Z,22.67
2023-03-06T19:09:36.238Z,22.40
2023-03-06T19:12:13.748Z,19.12
2023-03-06T19:14:45.535Z,13.88
2023-03-06T19:17:17.126Z,19.30
2023-03-06T19:19:51.508Z,20.17
2023-03-06T19:22:23.649Z,17.40
2023-03-06T19:24:55.514Z,15.80
2023-03-06T19:27:27.076Z,20.48
2023-03-06T19:29:58.796Z,21.25
2023-03-06T19:32:30.194Z,18.50
2023-03-06T19:35:01.747Z,25.80
2023-03-06T19:37:34.385Z,19.85
2023-03-06T19:40:06.813Z,24.35
2023-03-06T19:42:38.193Z,17.57
2023-03-06T19:45:11.641Z,22.15
2023-03-06T19:47:43.145Z,23.10
2023-03-06T19:50:15.122Z,24.63
2023-03-06T19:52:49.290Z,20.95
2023-03-06T19:55:24.873Z,17.02
2023-03-06T19:57:56.489Z,17.85
2023-03-06T20:00:29.419Z,16.15
2023-03-06T20:03:00.769Z,15.25
2023-03-06T20:05:32.265Z,22.77
2023-03-06T20:08:04.676Z,14.85
2023-03-06T20:10:38.925Z,16.57
2023-03-06T20:13:10.392Z,21.15
2023-03-06T20:15:41.982Z,16.17
2023-03-06T20:18:13.721Z,15.40
2023-03-06T20:20:45.293Z,14.90
2023-03-06T20:23:16.806Z,15.05
2023-03-06T20:25:48.216Z,14.43
2023-03-06T20:28:19.659Z,15.03
2023-03-06T20:30:51.231Z,15.30
2023-03-06T20:33:23.071Z,15.83
2023-03-06T20:35:54.639Z,14.85
2023-03-06T20:38:31.943Z,18.50
2023-03-06T20:41:20.422Z,20.05
2023-03-06T20:43:56.313Z,26.12
2023-03-06T20:46:27.981Z,18.32
2023-03-06T20:48:59.501Z,22.35
2023-03-06T20:51:32.207Z,20.97
2023-03-06T20:54:04.386Z,19.23
2023-03-06T20:56:38.850Z,19.70
2023-03-06T20:59:11.692Z,25.37
2023-03-06T21:01:44.582Z,25.32
2023-03-06T21:04:16.511Z,23.50
2023-03-06T21:06:48.233Z,24.07
2023-03-06T21:09:19.623Z,22.30
2023-03-06T21:11:51.080Z,19.15
2023-03-06T21:14:23.013Z,22.75
2023-03-06T21:16:54.359Z,20.37
2023-03-06T21:19:26.094Z,24.55
2023-03-06T21:22:03.179Z,20.05
2023-03-06T21:24:34.565Z,17.10
2023-03-06T21:27:06.247Z,19.25
2023-03-06T21:29:44.183Z,23.77
2023-03-06T21:32:28.883Z,24.15
2023-03-06T21:35:00.457Z,19.52
2023-03-06T21:37:31.776Z,25.25
2023-03-06T21:40:06.647Z,20.17
2023-03-06T21:42:38.008Z,19.48
2023-03-06T21:45:11.931Z,19.05
2023-03-06T21:47:43.275Z,19.23
2023-03-06T21:50:15.300Z,21.50
2023-03-06T21:52:46.669Z,21.02
2023-03-06T21:55:18.338Z,19.77
2023-03-06T21:57:52.140Z,22.45
2023-03-06T22:00:25.651Z,18.67
2023-03-06T22:02:57.176Z,25.37
2023-03-06T22:05:28.588Z,22.35
2023-03-06T22:08:01.253Z,17.10
2023-03-06T22:10:32.640Z,22.15
2023-03-06T22:13:04.033Z,22.27
2023-03-06T22:15:35.483Z,22.30
2023-03-06T22:18:07.230Z,22.52
2023-03-06T22:20:40.898Z,21.75
2023-03-06T22:23:12.329Z,20.35
2023-03-06T22:25:43.780Z,18.40
2023-03-06T22:28:16.017Z,18.37
2023-03-06T22:30:47.601Z,17.92
2023-03-06T22:33:19.034Z,19.48
2023-03-06T22:35:50.491Z,17.25
2023-03-06T22:38:21.944Z,22.75
2023-03-06T22:40:54.750Z,20.15
2023-03-06T22:43:26.247Z,23.77
2023-03-06T22:46:01.985Z,22.98
2023-03-06T22:48:34.009Z,20.27
2023-03-06T22:51:07.717Z,22.10
2023-03-06T22:53:39.143Z,23.90
2023-03-06T22:56:12.760Z,20.52
2023-03-06T22:58:44.923Z,19.55
2023-03-06T23:01:18.882Z,22.77
2023-03-06T23:03:52.353Z,20.70
2023-03-06T23:06:25.523Z,22.05
2023-03-06T23:08:58.802Z,23.20
2023-03-06T23:11:31.001Z,21.45
2023-03-06T23:14:04.926Z,16.12
2023-03-06T23:16:36.514Z,20.95
2023-03-06T23:19:08.193Z,17.92
2023-03-06T23:21:39.565Z,22.85
2023-03-06T23:24:11.341Z,16.27
2023-03-06T23:26:42.840Z,18.25
2023-03-06T23:29:14.414Z,16.90
2023-03-06T23:31:45.860Z,20.40
2023-03-06T23:34:17.398Z,21.50
2023-03-06T23:36:48.892Z,20.60
2023-03-06T23:39:20.475Z,17.25
2023-03-06T23:41:51.953Z,14.45
2023-03-06T23:44:23.416Z,20.02
2023-03-06T23:46:54.721Z,24.57
2023-03-06T23:49:27.177Z,19.60
2023-03-06T23:51:58.645Z,14.85
2023-03-06T23:54:30.045Z,16.30
2023-03-06T23:59:31.003Z,15.45
